Portada
METAR-TAF:

METAR-TAF

Aeroports :

Richmond, Austràlia

latitud: 20-42-07S, longitud: 143-06-53E, altitud: 206 m

Observació

L'informe es va fer fa 1 hora i 15 minuts, a les 00:00 UTC
Vent 11 kt del Sud-Est
Temperatura 31°C
Humitat 10%
Pressió 1014 hPa
Visibilitat 10 km o més

METAR: YRMD 140000Z AUTO 13011KT 9999 // NCD 31/M04 Q1014

Hora: 11:15 (01:15 UTC)

Pronòstic

L'informe es va fer fa 6 hores i 17 minuts, a les 18:58 UTC
Pronòstic vàlid del 13 a les 20 UTC al 14 a les 08 UTC
Vent 10 kt del Oest/Sud-Oest
Visibilitat 10 km o més
sense núvols per sota de 1500 mi sense presència de cumulonimbus.

TAF: YRMD 131858Z 1320/1408 24010KT CAVOK

Observacions i pronòstics meteorològics de més de 4000 aeroports (METAR i TAF).

Les estacions disponibles són els punts grocs i vermells al mapa.

Posi el ratolí al punt desitjat per veure el nom de l'estació.

Feu clic per veure les observacions i els pronòstics meteorològics.

Per canviar el mapa: feu clic els botons verds amb una creu de color negre per apropar; al botó verd amb un guió per allunyar la imatge; o en les fletxes verdes per a mapes adjacents.


METAR-TAF: